createdAt,value
2022-11-17T00:00:42.937Z,6.30
2022-11-17T00:03:16.350Z,6.29
2022-11-17T00:05:44.563Z,6.23
2022-11-17T00:08:12.054Z,6.44
2022-11-17T00:10:39.214Z,6.49
2022-11-17T00:13:25.206Z,6.45
2022-11-17T00:15:52.404Z,6.43
2022-11-17T00:18:38.205Z,6.44
2022-11-17T00:21:21.407Z,6.39
2022-11-17T00:23:50.190Z,6.27
2022-11-17T00:26:31.579Z,6.20
2022-11-17T00:29:04.944Z,6.16
2022-11-17T00:31:53.027Z,6.09
2022-11-17T00:34:23.403Z,6.06
2022-11-17T00:36:54.248Z,5.96
2022-11-17T00:39:23.731Z,5.90
2022-11-17T00:41:51.072Z,5.84
2022-11-17T00:44:18.438Z,5.83
2022-11-17T00:46:45.773Z,5.80
2022-11-17T00:49:14.457Z,5.98
2022-11-17T00:51:42.409Z,6.14
2022-11-17T00:54:13.000Z,6.25
2022-11-17T00:56:40.965Z,6.42
2022-11-17T00:59:08.186Z,6.52
2022-11-17T01:01:36.144Z,6.64
2022-11-17T01:04:04.472Z,6.76
2022-11-17T01:06:45.399Z,6.86
2022-11-17T01:09:15.720Z,6.85
2022-11-17T01:11:44.152Z,6.88
2022-11-17T01:14:26.011Z,6.86
2022-11-17T01:16:54.236Z,6.89
2022-11-17T01:19:23.371Z,6.91
2022-11-17T01:21:50.736Z,6.88
2022-11-17T01:24:18.293Z,6.89
2022-11-17T01:26:46.324Z,6.88
2022-11-17T01:29:18.957Z,6.97
2022-11-17T01:31:51.436Z,7.08
2022-11-17T01:34:18.968Z,7.14
2022-11-17T01:37:05.059Z,7.14
2022-11-17T01:39:32.371Z,7.14
2022-11-17T01:42:11.592Z,7.10
2022-11-17T01:45:20.289Z,7.04
2022-11-17T01:47:58.503Z,6.99
2022-11-17T01:50:38.259Z,6.99
2022-11-17T01:53:15.411Z,6.98
2022-11-17T01:55:51.286Z,7.01
2022-11-17T01:58:36.726Z,7.11
2022-11-17T02:01:04.299Z,7.15
2022-11-17T02:03:34.490Z,7.27
2022-11-17T02:06:28.850Z,7.31
2022-11-17T02:08:58.060Z,7.26
2022-11-17T02:11:27.127Z,7.28
2022-11-17T02:13:56.116Z,7.27
2022-11-17T02:16:23.403Z,7.25
2022-11-17T02:18:50.717Z,7.27
2022-11-17T02:21:57.255Z,7.22
2022-11-17T02:24:55.144Z,7.19
2022-11-17T02:27:50.236Z,7.14
2022-11-17T02:30:21.304Z,7.11
2022-11-17T02:32:57.627Z,7.05
2022-11-17T02:35:52.003Z,7.09
2022-11-17T02:38:54.289Z,7.15
2022-11-17T02:41:55.632Z,7.16
2022-11-17T02:44:52.204Z,7.10
2022-11-17T02:47:24.320Z,7.12
2022-11-17T02:50:05.966Z,7.16
2022-11-17T02:52:33.608Z,7.27
2022-11-17T02:55:09.327Z,7.30
2022-11-17T02:57:41.238Z,7.34
2022-11-17T03:00:20.412Z,7.39
2022-11-17T03:03:10.384Z,7.40
2022-11-17T03:06:46.448Z,7.44
2022-11-17T03:09:28.392Z,7.45
2022-11-17T03:12:24.998Z,7.48
2022-11-17T03:15:21.270Z,7.42
2022-11-17T03:18:20.175Z,7.31
2022-11-17T03:21:11.095Z,7.21
2022-11-17T03:23:50.240Z,7.14
2022-11-17T03:26:29.661Z,7.06
2022-11-17T03:28:58.718Z,6.98
2022-11-17T03:31:28.150Z,6.92
2022-11-17T03:33:56.875Z,6.88
2022-11-17T03:36:34.626Z,6.89
2022-11-17T03:39:17.259Z,6.81
2022-11-17T03:41:49.973Z,6.79
2022-11-17T03:44:21.509Z,6.75
2022-11-17T03:46:54.159Z,6.72
2022-11-17T03:49:40.599Z,6.70
2022-11-17T03:52:08.187Z,6.67
2022-11-17T03:54:36.867Z,6.63
2022-11-17T03:57:31.396Z,6.65
2022-11-17T04:00:11.733Z,6.63
2022-11-17T04:02:45.073Z,6.63
2022-11-17T04:05:17.480Z,6.62
2022-11-17T04:07:48.205Z,6.59
2022-11-17T04:10:20.231Z,6.57
2022-11-17T04:13:07.679Z,6.58
2022-11-17T04:15:53.608Z,6.60
2022-11-17T04:18:22.264Z,6.66
2022-11-17T04:20:56.666Z,6.70
2022-11-17T04:23:25.361Z,6.72
2022-11-17T04:26:14.814Z,6.70
2022-11-17T04:28:49.643Z,6.68
2022-11-17T04:31:30.600Z,6.59
2022-11-17T04:34:03.976Z,6.55
2022-11-17T04:36:45.379Z,6.53
2022-11-17T04:39:15.004Z,6.57
2022-11-17T04:41:54.867Z,6.54
2022-11-17T04:44:28.465Z,6.50
2022-11-17T04:46:57.369Z,6.44
2022-11-17T04:49:25.993Z,6.45
2022-11-17T04:51:54.259Z,6.42
2022-11-17T04:54:24.713Z,6.42
2022-11-17T04:56:54.231Z,6.40
2022-11-17T04:59:22.172Z,6.33
2022-11-17T05:01:49.861Z,6.32
2022-11-17T05:04:39.303Z,6.33
2022-11-17T05:07:08.937Z,6.32
2022-11-17T05:09:36.371Z,6.34
2022-11-17T05:12:22.640Z,6.35
2022-11-17T05:14:50.509Z,6.20
2022-11-17T05:17:18.059Z,6.23
2022-11-17T05:19:47.950Z,6.31
2022-11-17T05:22:41.955Z,6.29
2022-11-17T05:25:09.894Z,6.28
2022-11-17T05:27:37.825Z,6.32
2022-11-17T05:30:08.197Z,6.29
2022-11-17T05:32:35.414Z,6.31
2022-11-17T05:35:02.562Z,6.27
2022-11-17T05:37:29.763Z,6.25
2022-11-17T05:39:57.004Z,6.24
2022-11-17T05:42:24.163Z,6.06
2022-11-17T05:44:51.342Z,6.06
2022-11-17T05:47:18.598Z,6.06
2022-11-17T05:49:45.778Z,6.04
2022-11-17T05:52:13.123Z,5.98
2022-11-17T05:54:40.303Z,5.93
2022-11-17T05:57:16.607Z,5.83
2022-11-17T05:59:51.769Z,5.80
2022-11-17T06:02:25.764Z,5.72
2022-11-17T06:04:53.221Z,5.71
2022-11-17T06:07:20.780Z,5.74
2022-11-17T06:09:48.187Z,5.61
2022-11-17T06:12:15.558Z,5.58
2022-11-17T06:14:43.185Z,5.60
2022-11-17T06:17:25.127Z,5.58
2022-11-17T06:20:07.602Z,5.66
2022-11-17T06:22:35.837Z,5.82
2022-11-17T06:25:05.748Z,5.79
2022-11-17T06:27:33.856Z,5.79
2022-11-17T06:30:05.323Z,5.74
2022-11-17T06:32:36.525Z,5.77
2022-11-17T06:35:07.831Z,5.79
2022-11-17T06:37:35.080Z,5.84
2022-11-17T06:40:02.761Z,5.82
2022-11-17T06:42:48.686Z,5.85
2022-11-17T06:45:15.854Z,5.84
2022-11-17T06:47:43.029Z,5.82
2022-11-17T06:50:10.684Z,5.85
2022-11-17T06:52:38.990Z,5.94
2022-11-17T06:55:07.705Z,5.90
2022-11-17T06:57:34.979Z,5.86
2022-11-17T07:00:02.787Z,5.83
2022-11-17T07:02:32.538Z,5.91
2022-11-17T07:04:59.783Z,5.90
2022-11-17T07:07:27.084Z,5.85
2022-11-17T07:09:54.265Z,5.92
2022-11-17T07:12:21.515Z,5.92
2022-11-17T07:14:48.781Z,5.91
2022-11-17T07:17:16.081Z,5.88
2022-11-17T07:19:43.402Z,5.84
2022-11-17T07:22:10.685Z,5.92
2022-11-17T07:24:37.934Z,6.00
2022-11-17T07:27:06.484Z,6.07
2022-11-17T07:29:33.805Z,6.14
2022-11-17T07:32:00.964Z,6.26
2022-11-17T07:34:28.151Z,6.22
2022-11-17T07:36:55.522Z,6.26
2022-11-17T07:39:22.850Z,6.28
2022-11-17T07:41:50.226Z,6.26
2022-11-17T07:44:17.483Z,6.26
2022-11-17T07:46:44.688Z,6.22
2022-11-17T07:49:12.025Z,6.22
2022-11-17T07:51:39.238Z,6.30
2022-11-17T07:54:06.489Z,6.29
2022-11-17T07:56:34.588Z,6.35
2022-11-17T07:59:01.793Z,6.29
2022-11-17T08:01:29.644Z,6.27
2022-11-17T08:03:57.928Z,6.37
2022-11-17T08:06:25.486Z,6.54
2022-11-17T08:08:53.619Z,6.70
2022-11-17T08:11:21.213Z,6.80
2022-11-17T08:13:50.069Z,6.88
2022-11-17T08:16:17.517Z,6.92
2022-11-17T08:18:50.522Z,6.99
2022-11-17T08:21:19.545Z,7.14
2022-11-17T08:23:55.267Z,7.29
2022-11-17T08:26:23.785Z,7.35
2022-11-17T08:28:56.853Z,7.45
2022-11-17T08:31:26.303Z,7.61
2022-11-17T08:33:53.633Z,7.74
2022-11-17T08:36:20.950Z,7.76
2022-11-17T08:38:48.255Z,7.83
2022-11-17T08:41:15.524Z,7.89
2022-11-17T08:43:43.129Z,7.95
2022-11-17T08:46:14.432Z,7.89
2022-11-17T08:48:41.677Z,7.94
2022-11-17T08:51:09.829Z,8.11
2022-11-17T08:53:37.219Z,8.29
2022-11-17T08:56:12.928Z,8.18
2022-11-17T08:58:44.978Z,8.03
2022-11-17T09:01:16.622Z,8.09
2022-11-17T09:03:47.227Z,8.27
2022-11-17T09:06:16.598Z,8.43
2022-11-17T09:08:56.109Z,8.30
2022-11-17T09:11:24.220Z,8.32
2022-11-17T09:13:51.338Z,8.49
2022-11-17T09:16:18.710Z,8.51
2022-11-17T09:18:46.034Z,8.51
2022-11-17T09:21:15.959Z,8.57
2022-11-17T09:23:43.600Z,8.66
2022-11-17T09:26:15.115Z,8.60
2022-11-17T09:28:44.387Z,8.59
2022-11-17T09:31:20.344Z,8.66
2022-11-17T09:33:47.789Z,8.78
2022-11-17T09:36:16.601Z,8.78
2022-11-17T09:38:44.616Z,8.71
2022-11-17T09:41:44.596Z,8.69
2022-11-17T09:44:39.854Z,8.72
2022-11-17T09:47:34.741Z,8.97
2022-11-17T09:50:22.322Z,9.05
2022-11-17T09:53:24.681Z,8.95
2022-11-17T09:56:01.426Z,9.02
2022-11-17T09:58:52.009Z,9.13
2022-11-17T10:01:22.354Z,9.13
2022-11-17T10:03:53.643Z,9.09
2022-11-17T10:06:25.090Z,9.30
2022-11-17T10:09:00.319Z,9.27
2022-11-17T10:11:36.610Z,9.25
2022-11-17T10:14:15.882Z,9.26
2022-11-17T10:16:57.598Z,9.31
2022-11-17T10:19:33.110Z,9.24
2022-11-17T10:22:03.737Z,9.28
2022-11-17T10:24:43.752Z,9.24
2022-11-17T10:27:34.232Z,9.34
2022-11-17T10:30:19.710Z,9.20
2022-11-17T10:32:59.525Z,9.21
2022-11-17T10:35:35.021Z,9.32
2022-11-17T10:38:02.150Z,9.32
2022-11-17T10:40:39.796Z,9.46
2022-11-17T10:43:12.777Z,9.71
2022-11-17T10:45:52.810Z,9.69
2022-11-17T10:48:37.809Z,9.98
2022-11-17T10:51:16.907Z,9.95
2022-11-17T10:53:46.489Z,9.77
2022-11-17T10:56:21.675Z,9.99
2022-11-17T10:59:09.897Z,10.38
2022-11-17T11:01:42.452Z,10.42
2022-11-17T11:04:35.564Z,10.58
2022-11-17T11:07:23.847Z,10.73
2022-11-17T11:10:33.641Z,10.97
2022-11-17T11:13:49.074Z,10.55
2022-11-17T11:16:16.373Z,10.43
2022-11-17T11:18:43.645Z,10.30
2022-11-17T11:21:44.409Z,10.19
2022-11-17T11:24:48.904Z,10.15
2022-11-17T11:28:11.580Z,10.01
2022-11-17T11:31:15.911Z,10.02
2022-11-17T11:34:18.105Z,10.17
2022-11-17T11:36:57.169Z,10.11
2022-11-17T11:40:14.968Z,10.15
2022-11-17T11:43:16.555Z,10.17
2022-11-17T11:46:54.825Z,10.26
2022-11-17T11:49:38.249Z,10.30
2022-11-17T11:52:18.246Z,10.38
2022-11-17T11:55:01.399Z,10.48
2022-11-17T11:57:40.974Z,10.47
2022-11-17T12:00:17.285Z,10.58
2022-11-17T12:03:04.385Z,10.68
2022-11-17T12:06:41.449Z,10.65
2022-11-17T12:10:03.905Z,10.87
2022-11-17T12:12:37.544Z,10.85
2022-11-17T12:15:19.567Z,10.81
2022-11-17T12:17:52.714Z,10.71
2022-11-17T12:20:50.473Z,10.72
2022-11-17T12:23:42.545Z,10.74
2022-11-17T12:26:23.887Z,10.81
2022-11-17T12:29:19.851Z,10.96
2022-11-17T12:31:59.253Z,10.98
2022-11-17T12:34:37.268Z,10.89
2022-11-17T12:37:22.465Z,10.83
2022-11-17T12:40:41.470Z,10.99
2022-11-17T12:43:26.212Z,11.00
2022-11-17T12:45:54.435Z,11.06
2022-11-17T12:48:35.454Z,10.96
2022-11-17T12:51:30.958Z,10.97
2022-11-17T12:54:51.569Z,10.95
2022-11-17T12:57:29.000Z,10.96
2022-11-17T13:00:11.001Z,11.10
2022-11-17T13:03:17.755Z,11.20
2022-11-17T13:05:45.280Z,11.27
2022-11-17T13:08:22.934Z,11.22
2022-11-17T13:10:51.228Z,11.20
2022-11-17T13:13:23.634Z,11.36
2022-11-17T13:15:58.807Z,11.33
2022-11-17T13:18:40.289Z,11.32
2022-11-17T13:21:36.925Z,11.63
2022-11-17T13:24:04.120Z,11.93
2022-11-17T13:26:41.437Z,11.92
2022-11-17T13:29:19.355Z,11.74
2022-11-17T13:31:48.408Z,11.63
2022-11-17T13:34:21.713Z,11.62
2022-11-17T13:37:00.269Z,11.68
2022-11-17T13:39:28.760Z,11.83
2022-11-17T13:42:02.550Z,11.90
2022-11-17T13:44:32.118Z,11.86
2022-11-17T13:47:28.265Z,11.90
2022-11-17T13:49:55.477Z,11.94
2022-11-17T13:52:41.952Z,11.76
2022-11-17T13:55:17.448Z,11.78
2022-11-17T13:58:30.389Z,11.77
2022-11-17T14:00:59.363Z,11.68
2022-11-17T14:03:42.899Z,11.63
2022-11-17T14:06:13.468Z,11.63
2022-11-17T14:08:44.508Z,11.64
2022-11-17T14:11:11.568Z,11.69
2022-11-17T14:14:00.944Z,11.65
2022-11-17T14:16:41.803Z,11.57
2022-11-17T14:19:15.101Z,11.50
2022-11-17T14:22:22.494Z,11.39
2022-11-17T14:24:54.765Z,11.31
2022-11-17T14:27:27.634Z,11.21
2022-11-17T14:29:55.126Z,11.17
2022-11-17T14:32:22.268Z,11.17
2022-11-17T14:34:49.534Z,11.17
2022-11-17T14:37:17.269Z,11.11
2022-11-17T14:39:44.456Z,11.06
2022-11-17T14:42:11.693Z,11.13
2022-11-17T14:44:38.961Z,11.14
2022-11-17T14:47:06.197Z,11.11
2022-11-17T14:49:33.368Z,11.06
2022-11-17T14:52:00.672Z,10.99
2022-11-17T14:54:28.981Z,10.98
2022-11-17T14:56:56.193Z,11.01
2022-11-17T14:59:23.509Z,11.01
2022-11-17T15:01:50.756Z,10.97
2022-11-17T15:04:48.897Z,10.95
2022-11-17T15:07:05.556Z,10.90
2022-11-17T15:09:33.412Z,10.85
2022-11-17T15:12:00.666Z,10.85
2022-11-17T15:14:27.969Z,10.84
2022-11-17T15:16:55.161Z,10.81
2022-11-17T15:19:22.664Z,10.80
2022-11-17T15:21:49.919Z,10.80
2022-11-17T15:24:17.637Z,10.77
2022-11-17T15:26:45.297Z,10.75
2022-11-17T15:29:15.961Z,10.73
2022-11-17T15:31:43.643Z,10.78
2022-11-17T15:34:14.429Z,10.80
2022-11-17T15:36:45.889Z,10.76
2022-11-17T15:39:13.675Z,10.68
2022-11-17T15:41:41.586Z,10.67
2022-11-17T15:44:09.101Z,10.63
2022-11-17T15:46:36.432Z,10.64
2022-11-17T15:49:04.239Z,10.57
2022-11-17T15:51:31.441Z,10.51
2022-11-17T15:54:00.357Z,10.50
2022-11-17T15:56:31.064Z,10.44
2022-11-17T15:59:05.143Z,10.38
2022-11-17T16:01:41.744Z,10.33
2022-11-17T16:04:13.239Z,10.28
2022-11-17T16:06:44.056Z,10.22
2022-11-17T16:09:12.966Z,10.15
2022-11-17T16:11:41.140Z,10.10
2022-11-17T16:14:09.015Z,10.11
2022-11-17T16:16:39.145Z,10.15
2022-11-17T16:19:07.069Z,10.20
2022-11-17T16:21:34.371Z,10.18
2022-11-17T16:24:02.103Z,10.10
2022-11-17T16:26:30.425Z,10.04
2022-11-17T16:29:00.879Z,10.06
2022-11-17T16:31:34.968Z,10.11
2022-11-17T16:34:13.143Z,10.11
2022-11-17T16:36:43.180Z,10.04
2022-11-17T16:39:17.377Z,10.03
2022-11-17T16:41:45.802Z,10.01
2022-11-17T16:44:17.334Z,9.94
2022-11-17T16:46:48.217Z,9.93
2022-11-17T16:49:18.517Z,9.94
2022-11-17T16:51:53.886Z,9.91
2022-11-17T16:54:21.240Z,9.88
2022-11-17T16:56:48.782Z,9.85
2022-11-17T16:59:16.785Z,9.91
2022-11-17T17:01:45.041Z,10.01
2022-11-17T17:04:12.544Z,9.98
2022-11-17T17:06:45.432Z,9.99
2022-11-17T17:09:15.202Z,9.97
2022-11-17T17:11:43.075Z,9.97
2022-11-17T17:14:14.589Z,9.96
2022-11-17T17:16:43.068Z,10.00
2022-11-17T17:19:13.419Z,9.97
2022-11-17T17:21:42.773Z,9.92
2022-11-17T17:24:10.977Z,9.84
2022-11-17T17:26:40.101Z,9.81
2022-11-17T17:29:08.356Z,9.81
2022-11-17T17:31:39.715Z,9.80
2022-11-17T17:34:08.689Z,9.77
2022-11-17T17:36:37.211Z,9.74
2022-11-17T17:39:06.140Z,9.70
2022-11-17T17:41:39.317Z,9.71
2022-11-17T17:44:08.387Z,9.69
2022-11-17T17:46:38.665Z,9.69
2022-11-17T17:49:06.572Z,9.69
2022-11-17T17:51:43.506Z,9.67
2022-11-17T17:54:20.658Z,9.63
2022-11-17T17:56:48.367Z,9.65
2022-11-17T17:59:16.740Z,9.65
2022-11-17T18:01:46.151Z,9.65
2022-11-17T18:04:16.306Z,9.61
2022-11-17T18:06:48.803Z,9.65
2022-11-17T18:09:19.370Z,9.64
2022-11-17T18:11:50.286Z,9.66
2022-11-17T18:14:26.186Z,9.63
2022-11-17T18:16:54.302Z,9.66
2022-11-17T18:19:22.407Z,9.65
2022-11-17T18:21:49.668Z,9.67
2022-11-17T18:24:16.911Z,9.61
2022-11-17T18:26:44.278Z,9.55
2022-11-17T18:29:18.539Z,9.55
2022-11-17T18:31:47.318Z,9.56
2022-11-17T18:34:21.073Z,9.54
2022-11-17T18:36:51.883Z,9.49
2022-11-17T18:39:19.867Z,9.42
2022-11-17T18:41:47.571Z,9.43
2022-11-17T18:44:17.143Z,9.44
2022-11-17T18:46:44.380Z,9.44
2022-11-17T18:49:11.936Z,9.43
2022-11-17T18:51:39.144Z,9.47
2022-11-17T18:54:07.781Z,9.51
2022-11-17T18:56:37.729Z,9.52
2022-11-17T18:59:13.247Z,9.48
2022-11-17T19:01:42.873Z,9.49
2022-11-17T19:04:14.496Z,9.47
2022-11-17T19:06:41.973Z,9.43
2022-11-17T19:09:09.278Z,9.42
2022-11-17T19:11:36.500Z,9.41
2022-11-17T19:14:05.258Z,9.39
2022-11-17T19:16:33.463Z,9.41
2022-11-17T19:19:00.700Z,9.39
2022-11-17T19:21:33.481Z,9.44
2022-11-17T19:24:04.269Z,9.45
2022-11-17T19:26:34.757Z,9.46
2022-11-17T19:29:16.203Z,9.48
2022-11-17T19:31:46.697Z,9.52
2022-11-17T19:34:15.428Z,9.52
2022-11-17T19:36:42.897Z,9.52
2022-11-17T19:39:13.095Z,9.49
2022-11-17T19:41:40.484Z,9.49
2022-11-17T19:44:09.539Z,9.48
2022-11-17T19:46:37.148Z,9.47
2022-11-17T19:49:07.458Z,9.48
2022-11-17T19:51:37.206Z,9.51
2022-11-17T19:54:08.428Z,9.48
2022-11-17T19:56:36.377Z,9.53
2022-11-17T19:59:04.659Z,9.54
2022-11-17T20:01:33.278Z,9.55
2022-11-17T20:04:02.269Z,9.58
2022-11-17T20:06:37.538Z,9.59
2022-11-17T20:09:11.831Z,9.58
2022-11-17T20:11:40.141Z,9.59
2022-11-17T20:14:07.557Z,9.55
2022-11-17T20:16:36.753Z,9.53
2022-11-17T20:19:04.208Z,9.49
2022-11-17T20:21:31.627Z,9.45
2022-11-17T20:23:59.287Z,9.41
2022-11-17T20:26:31.403Z,9.36
2022-11-17T20:28:59.713Z,9.26
2022-11-17T20:31:35.142Z,9.19
2022-11-17T20:34:05.449Z,9.19
2022-11-17T20:36:34.651Z,9.21
2022-11-17T20:39:06.092Z,9.24
2022-11-17T20:41:34.132Z,9.32
2022-11-17T20:44:03.148Z,9.40
2022-11-17T20:46:30.523Z,9.48
2022-11-17T20:48:57.756Z,9.52
2022-11-17T20:51:26.145Z,9.52
2022-11-17T20:53:53.460Z,9.50
2022-11-17T20:56:21.111Z,9.55
2022-11-17T20:58:48.437Z,9.59
2022-11-17T21:01:20.503Z,9.62
2022-11-17T21:03:49.225Z,9.65
2022-11-17T21:06:18.109Z,9.66
2022-11-17T21:08:46.701Z,9.66
2022-11-17T21:11:39.578Z,9.64
2022-11-17T21:14:11.505Z,9.59
2022-11-17T21:16:44.558Z,9.57
2022-11-17T21:19:13.880Z,9.56
2022-11-17T21:21:41.418Z,9.53
2022-11-17T21:24:09.417Z,9.51
2022-11-17T21:26:37.003Z,9.46
2022-11-17T21:29:16.821Z,9.43
2022-11-17T21:31:44.091Z,9.42
2022-11-17T21:34:16.851Z,9.43
2022-11-17T21:36:44.245Z,9.41
2022-11-17T21:39:17.931Z,9.42
2022-11-17T21:41:45.665Z,9.43
2022-11-17T21:44:14.187Z,9.47
2022-11-17T21:46:41.573Z,9.45
2022-11-17T21:49:08.852Z,9.40
2022-11-17T21:51:38.499Z,9.34
2022-11-17T21:54:09.864Z,9.29
2022-11-17T21:56:37.437Z,9.24
2022-11-17T21:59:11.571Z,9.10
2022-11-17T22:01:39.818Z,9.11
2022-11-17T22:04:07.401Z,9.12
2022-11-17T22:06:34.716Z,9.01
2022-11-17T22:09:01.957Z,8.96
2022-11-17T22:11:37.945Z,8.99
2022-11-17T22:14:19.380Z,8.96
2022-11-17T22:16:57.848Z,8.94
2022-11-17T22:19:30.719Z,8.98
2022-11-17T22:21:57.992Z,9.07
2022-11-17T22:24:25.216Z,9.26
2022-11-17T22:26:52.494Z,9.36
2022-11-17T22:29:21.935Z,9.39
2022-11-17T22:31:50.253Z,9.41
2022-11-17T22:34:18.813Z,9.43
2022-11-17T22:36:46.532Z,9.48
2022-11-17T22:39:13.790Z,9.47
2022-11-17T22:41:41.353Z,9.47
2022-11-17T22:44:12.674Z,9.50
2022-11-17T22:46:40.640Z,9.53
2022-11-17T22:49:07.949Z,9.50
2022-11-17T22:51:53.917Z,9.52
2022-11-17T22:54:21.081Z,9.53
2022-11-17T22:56:48.353Z,9.52
2022-11-17T22:59:16.431Z,9.48
2022-11-17T23:01:43.915Z,9.48
2022-11-17T23:04:12.332Z,9.46
2022-11-17T23:06:39.488Z,9.51
2022-11-17T23:09:06.709Z,9.55
2022-11-17T23:11:38.389Z,9.54
2022-11-17T23:14:14.615Z,9.52
2022-11-17T23:16:42.358Z,9.54
2022-11-17T23:19:13.929Z,9.55
2022-11-17T23:21:41.922Z,9.52
2022-11-17T23:24:10.970Z,9.46
2022-11-17T23:26:39.690Z,9.41
2022-11-17T23:29:07.151Z,9.39
2022-11-17T23:31:34.489Z,9.40
2022-11-17T23:34:01.788Z,9.42
2022-11-17T23:36:29.044Z,9.46
2022-11-17T23:38:57.689Z,9.47
2022-11-17T23:41:25.153Z,9.45
2022-11-17T23:43:54.398Z,9.42
2022-11-17T23:46:26.452Z,9.42
2022-11-17T23:48:56.117Z,9.45
2022-11-17T23:51:26.412Z,9.46
2022-11-17T23:53:53.916Z,9.40
2022-11-17T23:56:22.190Z,9.39
2022-11-17T23:58:51.696Z,9.40
